sensor_id;sensor_type;location;lat;lon;timestamp;P1;durP1;ratioP1;P2;durP2;ratioP2
34657;SDS011;20865;43.312;27.152;2023-12-14T00:01:23;17.77;;;9.35;;
34657;SDS011;20865;43.312;27.152;2023-12-14T00:03:51;19.90;;;9.85;;
34657;SDS011;20865;43.312;27.152;2023-12-14T00:06:18;23.65;;;9.38;;
34657;SDS011;20865;43.312;27.152;2023-12-14T00:08:48;20.97;;;9.73;;
34657;SDS011;20865;43.312;27.152;2023-12-14T00:11:16;21.23;;;9.73;;
34657;SDS011;20865;43.312;27.152;2023-12-14T00:13:44;17.75;;;8.95;;
34657;SDS011;20865;43.312;27.152;2023-12-14T00:16:11;21.65;;;9.45;;
34657;SDS011;20865;43.312;27.152;2023-12-14T00:18:39;16.95;;;9.13;;
34657;SDS011;20865;43.312;27.152;2023-12-14T00:21:07;18.25;;;9.00;;
34657;SDS011;20865;43.312;27.152;2023-12-14T00:23:34;21.77;;;10.53;;
34657;SDS011;20865;43.312;27.152;2023-12-14T00:26:02;18.17;;;9.38;;
34657;SDS011;20865;43.312;27.152;2023-12-14T00:28:29;23.38;;;10.18;;
34657;SDS011;20865;43.312;27.152;2023-12-14T00:30:57;19.67;;;9.45;;
34657;SDS011;20865;43.312;27.152;2023-12-14T00:33:24;19.52;;;8.83;;
34657;SDS011;20865;43.312;27.152;2023-12-14T00:35:52;19.15;;;9.40;;
34657;SDS011;20865;43.312;27.152;2023-12-14T00:38:20;22.27;;;10.32;;
34657;SDS011;20865;43.312;27.152;2023-12-14T00:40:47;19.90;;;9.98;;
34657;SDS011;20865;43.312;27.152;2023-12-14T00:43:15;19.57;;;9.40;;
34657;SDS011;20865;43.312;27.152;2023-12-14T00:45:42;17.50;;;9.58;;
34657;SDS011;20865;43.312;27.152;2023-12-14T00:48:11;22.98;;;10.28;;
34657;SDS011;20865;43.312;27.152;2023-12-14T00:50:39;19.92;;;9.48;;
34657;SDS011;20865;43.312;27.152;2023-12-14T00:53:07;19.95;;;9.48;;
34657;SDS011;20865;43.312;27.152;2023-12-14T00:55:34;18.20;;;9.45;;
34657;SDS011;20865;43.312;27.152;2023-12-14T00:58:02;19.40;;;9.35;;
34657;SDS011;20865;43.312;27.152;2023-12-14T01:00:29;21.90;;;10.08;;
34657;SDS011;20865;43.312;27.152;2023-12-14T01:02:57;18.65;;;9.70;;
34657;SDS011;20865;43.312;27.152;2023-12-14T01:05:24;18.50;;;9.35;;
34657;SDS011;20865;43.312;27.152;2023-12-14T01:07:52;18.55;;;9.50;;
34657;SDS011;20865;43.312;27.152;2023-12-14T01:10:20;18.20;;;9.55;;
34657;SDS011;20865;43.312;27.152;2023-12-14T01:12:48;15.95;;;8.60;;
34657;SDS011;20865;43.312;27.152;2023-12-14T01:15:16;22.73;;;10.08;;
34657;SDS011;20865;43.312;27.152;2023-12-14T01:17:44;22.02;;;9.43;;
34657;SDS011;20865;43.312;27.152;2023-12-14T01:20:11;23.38;;;9.88;;
34657;SDS011;20865;43.312;27.152;2023-12-14T01:22:39;21.10;;;9.40;;
34657;SDS011;20865;43.312;27.152;2023-12-14T01:25:07;20.25;;;9.53;;
34657;SDS011;20865;43.312;27.152;2023-12-14T01:27:35;18.87;;;9.25;;
34657;SDS011;20865;43.312;27.152;2023-12-14T01:30:02;17.37;;;9.18;;
34657;SDS011;20865;43.312;27.152;2023-12-14T01:32:30;16.02;;;9.30;;
34657;SDS011;20865;43.312;27.152;2023-12-14T01:34:58;17.62;;;9.28;;
34657;SDS011;20865;43.312;27.152;2023-12-14T01:37:25;20.02;;;9.55;;
34657;SDS011;20865;43.312;27.152;2023-12-14T01:39:53;19.75;;;9.48;;
34657;SDS011;20865;43.312;27.152;2023-12-14T01:42:21;20.00;;;9.65;;
34657;SDS011;20865;43.312;27.152;2023-12-14T01:44:48;18.87;;;9.28;;
34657;SDS011;20865;43.312;27.152;2023-12-14T01:47:16;24.90;;;10.48;;
34657;SDS011;20865;43.312;27.152;2023-12-14T01:49:43;22.55;;;9.90;;
34657;SDS011;20865;43.312;27.152;2023-12-14T01:52:11;21.00;;;10.25;;
34657;SDS011;20865;43.312;27.152;2023-12-14T01:54:39;22.15;;;9.73;;
34657;SDS011;20865;43.312;27.152;2023-12-14T01:57:06;18.17;;;9.73;;
34657;SDS011;20865;43.312;27.152;2023-12-14T01:59:34;20.92;;;9.35;;
34657;SDS011;20865;43.312;27.152;2023-12-14T02:02:01;19.45;;;9.65;;
34657;SDS011;20865;43.312;27.152;2023-12-14T02:04:31;23.07;;;9.95;;
34657;SDS011;20865;43.312;27.152;2023-12-14T02:06:59;16.62;;;8.73;;
34657;SDS011;20865;43.312;27.152;2023-12-14T02:09:26;16.77;;;9.03;;
34657;SDS011;20865;43.312;27.152;2023-12-14T02:11:54;17.80;;;9.40;;
34657;SDS011;20865;43.312;27.152;2023-12-14T02:14:22;20.05;;;9.90;;
34657;SDS011;20865;43.312;27.152;2023-12-14T02:16:49;18.35;;;9.25;;
34657;SDS011;20865;43.312;27.152;2023-12-14T02:19:17;19.02;;;8.88;;
34657;SDS011;20865;43.312;27.152;2023-12-14T02:21:44;19.45;;;9.53;;
34657;SDS011;20865;43.312;27.152;2023-12-14T02:24:12;22.30;;;10.38;;
34657;SDS011;20865;43.312;27.152;2023-12-14T02:26:40;17.75;;;9.35;;
34657;SDS011;20865;43.312;27.152;2023-12-14T02:29:07;16.37;;;8.35;;
34657;SDS011;20865;43.312;27.152;2023-12-14T02:31:35;18.27;;;8.90;;
34657;SDS011;20865;43.312;27.152;2023-12-14T02:34:02;19.90;;;9.70;;
34657;SDS011;20865;43.312;27.152;2023-12-14T02:36:30;19.48;;;9.78;;
34657;SDS011;20865;43.312;27.152;2023-12-14T02:38:58;21.10;;;8.70;;
34657;SDS011;20865;43.312;27.152;2023-12-14T02:41:25;20.35;;;8.75;;
34657;SDS011;20865;43.312;27.152;2023-12-14T02:43:53;17.02;;;8.73;;
34657;SDS011;20865;43.312;27.152;2023-12-14T02:46:20;20.88;;;8.95;;
34657;SDS011;20865;43.312;27.152;2023-12-14T02:48:48;15.65;;;8.13;;
34657;SDS011;20865;43.312;27.152;2023-12-14T02:51:16;20.02;;;8.85;;
34657;SDS011;20865;43.312;27.152;2023-12-14T02:53:43;17.60;;;9.05;;
34657;SDS011;20865;43.312;27.152;2023-12-14T02:56:11;16.77;;;9.23;;
34657;SDS011;20865;43.312;27.152;2023-12-14T02:58:39;18.92;;;10.00;;
34657;SDS011;20865;43.312;27.152;2023-12-14T03:01:06;20.05;;;9.40;;
34657;SDS011;20865;43.312;27.152;2023-12-14T03:03:34;18.60;;;9.53;;
34657;SDS011;20865;43.312;27.152;2023-12-14T03:06:03;21.62;;;9.95;;
34657;SDS011;20865;43.312;27.152;2023-12-14T03:08:31;18.15;;;9.15;;
34657;SDS011;20865;43.312;27.152;2023-12-14T03:10:58;18.07;;;9.05;;
34657;SDS011;20865;43.312;27.152;2023-12-14T03:13:26;19.82;;;9.88;;
34657;SDS011;20865;43.312;27.152;2023-12-14T03:15:55;19.45;;;8.55;;
34657;SDS011;20865;43.312;27.152;2023-12-14T03:18:23;15.95;;;8.30;;
34657;SDS011;20865;43.312;27.152;2023-12-14T03:20:50;19.10;;;8.33;;
34657;SDS011;20865;43.312;27.152;2023-12-14T03:23:18;18.02;;;8.73;;
34657;SDS011;20865;43.312;27.152;2023-12-14T03:25:45;15.98;;;8.60;;
34657;SDS011;20865;43.312;27.152;2023-12-14T03:28:14;19.20;;;7.95;;
34657;SDS011;20865;43.312;27.152;2023-12-14T03:30:41;17.02;;;8.68;;
34657;SDS011;20865;43.312;27.152;2023-12-14T03:33:09;17.77;;;8.73;;
34657;SDS011;20865;43.312;27.152;2023-12-14T03:35:37;16.82;;;8.88;;
34657;SDS011;20865;43.312;27.152;2023-12-14T03:38:06;22.98;;;9.03;;
34657;SDS011;20865;43.312;27.152;2023-12-14T03:40:34;20.12;;;8.45;;
34657;SDS011;20865;43.312;27.152;2023-12-14T03:43:02;16.00;;;8.45;;
34657;SDS011;20865;43.312;27.152;2023-12-14T03:45:29;16.00;;;8.28;;
34657;SDS011;20865;43.312;27.152;2023-12-14T03:47:57;19.07;;;9.05;;
34657;SDS011;20865;43.312;27.152;2023-12-14T03:50:25;20.10;;;8.58;;
34657;SDS011;20865;43.312;27.152;2023-12-14T03:52:53;17.77;;;8.15;;
34657;SDS011;20865;43.312;27.152;2023-12-14T03:55:21;16.35;;;7.83;;
34657;SDS011;20865;43.312;27.152;2023-12-14T03:57:49;18.73;;;9.03;;
34657;SDS011;20865;43.312;27.152;2023-12-14T04:00:16;19.12;;;9.23;;
34657;SDS011;20865;43.312;27.152;2023-12-14T04:02:44;15.83;;;8.30;;
34657;SDS011;20865;43.312;27.152;2023-12-14T04:05:11;28.30;;;13.53;;
34657;SDS011;20865;43.312;27.152;2023-12-14T04:07:39;198.50;;;93.25;;
34657;SDS011;20865;43.312;27.152;2023-12-14T04:10:07;174.75;;;87.25;;
34657;SDS011;20865;43.312;27.152;2023-12-14T04:12:39;33.63;;;17.95;;
34657;SDS011;20865;43.312;27.152;2023-12-14T04:15:07;18.48;;;9.90;;
34657;SDS011;20865;43.312;27.152;2023-12-14T04:17:36;18.57;;;8.75;;
34657;SDS011;20865;43.312;27.152;2023-12-14T04:20:04;14.95;;;8.13;;
34657;SDS011;20865;43.312;27.152;2023-12-14T04:22:33;16.55;;;8.78;;
34657;SDS011;20865;43.312;27.152;2023-12-14T04:25:00;25.97;;;11.65;;
34657;SDS011;20865;43.312;27.152;2023-12-14T04:27:28;15.68;;;8.43;;
34657;SDS011;20865;43.312;27.152;2023-12-14T04:29:55;20.52;;;7.95;;
34657;SDS011;20865;43.312;27.152;2023-12-14T04:32:23;16.27;;;8.23;;
34657;SDS011;20865;43.312;27.152;2023-12-14T04:34:51;17.25;;;8.38;;
34657;SDS011;20865;43.312;27.152;2023-12-14T04:37:18;15.10;;;7.85;;
34657;SDS011;20865;43.312;27.152;2023-12-14T04:39:46;17.37;;;8.65;;
34657;SDS011;20865;43.312;27.152;2023-12-14T04:42:13;17.45;;;8.13;;
34657;SDS011;20865;43.312;27.152;2023-12-14T04:44:41;18.65;;;8.35;;
34657;SDS011;20865;43.312;27.152;2023-12-14T04:47:08;16.35;;;7.95;;
34657;SDS011;20865;43.312;27.152;2023-12-14T04:49:36;13.80;;;8.15;;
34657;SDS011;20865;43.312;27.152;2023-12-14T04:52:04;17.85;;;8.13;;
34657;SDS011;20865;43.312;27.152;2023-12-14T04:54:33;17.50;;;8.18;;
34657;SDS011;20865;43.312;27.152;2023-12-14T04:57:05;18.45;;;8.45;;
34657;SDS011;20865;43.312;27.152;2023-12-14T04:59:32;17.12;;;8.13;;
34657;SDS011;20865;43.312;27.152;2023-12-14T05:02:00;20.02;;;8.63;;
34657;SDS011;20865;43.312;27.152;2023-12-14T05:04:28;16.32;;;7.92;;
34657;SDS011;20865;43.312;27.152;2023-12-14T05:06:55;19.62;;;8.30;;
34657;SDS011;20865;43.312;27.152;2023-12-14T05:09:23;17.00;;;8.00;;
34657;SDS011;20865;43.312;27.152;2023-12-14T05:11:50;18.80;;;9.40;;
34657;SDS011;20865;43.312;27.152;2023-12-14T05:14:18;15.75;;;8.05;;
34657;SDS011;20865;43.312;27.152;2023-12-14T05:16:46;19.12;;;9.85;;
34657;SDS011;20865;43.312;27.152;2023-12-14T05:19:14;18.17;;;9.33;;
34657;SDS011;20865;43.312;27.152;2023-12-14T05:21:41;22.90;;;9.65;;
34657;SDS011;20865;43.312;27.152;2023-12-14T05:24:09;19.95;;;10.88;;
34657;SDS011;20865;43.312;27.152;2023-12-14T05:26:36;32.55;;;14.30;;
34657;SDS011;20865;43.312;27.152;2023-12-14T05:29:04;30.48;;;14.68;;
34657;SDS011;20865;43.312;27.152;2023-12-14T05:31:32;22.32;;;12.18;;
34657;SDS011;20865;43.312;27.152;2023-12-14T05:33:59;32.73;;;17.95;;
34657;SDS011;20865;43.312;27.152;2023-12-14T05:36:28;33.00;;;17.07;;
34657;SDS011;20865;43.312;27.152;2023-12-14T05:38:55;28.30;;;15.93;;
34657;SDS011;20865;43.312;27.152;2023-12-14T05:41:23;25.05;;;14.20;;
34657;SDS011;20865;43.312;27.152;2023-12-14T05:43:51;23.02;;;11.78;;
34657;SDS011;20865;43.312;27.152;2023-12-14T05:46:24;30.70;;;16.52;;
34657;SDS011;20865;43.312;27.152;2023-12-14T05:48:52;25.60;;;13.35;;
34657;SDS011;20865;43.312;27.152;2023-12-14T05:51:31;25.50;;;12.80;;
34657;SDS011;20865;43.312;27.152;2023-12-14T05:53:55;29.37;;;12.43;;
34657;SDS011;20865;43.312;27.152;2023-12-14T05:56:28;25.10;;;11.65;;
34657;SDS011;20865;43.312;27.152;2023-12-14T05:58:52;20.37;;;9.78;;
34657;SDS011;20865;43.312;27.152;2023-12-14T06:01:20;23.60;;;10.28;;
34657;SDS011;20865;43.312;27.152;2023-12-14T06:03:50;23.20;;;11.22;;
34657;SDS011;20865;43.312;27.152;2023-12-14T06:06:18;27.80;;;11.18;;
34657;SDS011;20865;43.312;27.152;2023-12-14T06:08:45;25.40;;;15.05;;
34657;SDS011;20865;43.312;27.152;2023-12-14T06:11:14;20.62;;;11.63;;
34657;SDS011;20865;43.312;27.152;2023-12-14T06:13:41;26.45;;;13.95;;
34657;SDS011;20865;43.312;27.152;2023-12-14T06:16:09;26.80;;;14.75;;
34657;SDS011;20865;43.312;27.152;2023-12-14T06:18:39;30.80;;;13.88;;
34657;SDS011;20865;43.312;27.152;2023-12-14T06:21:11;25.08;;;13.32;;
34657;SDS011;20865;43.312;27.152;2023-12-14T06:23:39;27.60;;;13.10;;
34657;SDS011;20865;43.312;27.152;2023-12-14T06:26:06;27.40;;;13.25;;
34657;SDS011;20865;43.312;27.152;2023-12-14T06:28:34;28.80;;;13.62;;
34657;SDS011;20865;43.312;27.152;2023-12-14T06:31:02;27.42;;;13.00;;
34657;SDS011;20865;43.312;27.152;2023-12-14T06:33:30;78.95;;;30.75;;
34657;SDS011;20865;43.312;27.152;2023-12-14T06:35:59;32.28;;;15.20;;
34657;SDS011;20865;43.312;27.152;2023-12-14T06:38:29;75.37;;;28.35;;
34657;SDS011;20865;43.312;27.152;2023-12-14T06:40:57;54.75;;;24.30;;
34657;SDS011;20865;43.312;27.152;2023-12-14T06:43:24;21.23;;;11.00;;
34657;SDS011;20865;43.312;27.152;2023-12-14T06:45:52;24.80;;;12.05;;
34657;SDS011;20865;43.312;27.152;2023-12-14T06:48:20;22.07;;;11.90;;
34657;SDS011;20865;43.312;27.152;2023-12-14T06:50:47;27.13;;;12.85;;
34657;SDS011;20865;43.312;27.152;2023-12-14T06:53:15;45.17;;;23.65;;
34657;SDS011;20865;43.312;27.152;2023-12-14T06:55:43;67.62;;;30.10;;
34657;SDS011;20865;43.312;27.152;2023-12-14T06:58:10;234.52;;;87.45;;
34657;SDS011;20865;43.312;27.152;2023-12-14T07:00:38;326.98;;;117.65;;
34657;SDS011;20865;43.312;27.152;2023-12-14T07:03:05;728.02;;;284.20;;
34657;SDS011;20865;43.312;27.152;2023-12-14T07:05:33;644.05;;;251.95;;
34657;SDS011;20865;43.312;27.152;2023-12-14T07:08:01;178.35;;;64.47;;
34657;SDS011;20865;43.312;27.152;2023-12-14T07:10:29;295.37;;;107.58;;
34657;SDS011;20865;43.312;27.152;2023-12-14T07:12:58;125.20;;;48.58;;
34657;SDS011;20865;43.312;27.152;2023-12-14T07:15:25;59.30;;;26.42;;
34657;SDS011;20865;43.312;27.152;2023-12-14T07:17:53;130.70;;;58.85;;
34657;SDS011;20865;43.312;27.152;2023-12-14T07:20:20;50.28;;;26.55;;
34657;SDS011;20865;43.312;27.152;2023-12-14T07:22:49;240.40;;;94.67;;
34657;SDS011;20865;43.312;27.152;2023-12-14T07:25:16;78.75;;;36.85;;
34657;SDS011;20865;43.312;27.152;2023-12-14T07:27:44;74.25;;;35.05;;
34657;SDS011;20865;43.312;27.152;2023-12-14T07:30:13;59.55;;;26.75;;
34657;SDS011;20865;43.312;27.152;2023-12-14T07:32:41;63.78;;;28.30;;
34657;SDS011;20865;43.312;27.152;2023-12-14T07:35:08;65.78;;;28.80;;
34657;SDS011;20865;43.312;27.152;2023-12-14T07:37:36;47.38;;;26.93;;
34657;SDS011;20865;43.312;27.152;2023-12-14T07:40:06;50.78;;;27.15;;
34657;SDS011;20865;43.312;27.152;2023-12-14T07:42:34;68.12;;;32.42;;
34657;SDS011;20865;43.312;27.152;2023-12-14T07:45:01;58.87;;;29.10;;
34657;SDS011;20865;43.312;27.152;2023-12-14T07:47:30;42.38;;;20.43;;
34657;SDS011;20865;43.312;27.152;2023-12-14T07:49:57;51.13;;;21.73;;
34657;SDS011;20865;43.312;27.152;2023-12-14T07:52:25;41.53;;;20.35;;
34657;SDS011;20865;43.312;27.152;2023-12-14T07:54:52;103.40;;;48.38;;
34657;SDS011;20865;43.312;27.152;2023-12-14T07:57:20;36.48;;;19.07;;
34657;SDS011;20865;43.312;27.152;2023-12-14T07:59:49;32.70;;;15.50;;
34657;SDS011;20865;43.312;27.152;2023-12-14T08:02:17;43.98;;;20.90;;
34657;SDS011;20865;43.312;27.152;2023-12-14T08:04:44;57.48;;;29.63;;
34657;SDS011;20865;43.312;27.152;2023-12-14T08:07:12;42.23;;;21.68;;
34657;SDS011;20865;43.312;27.152;2023-12-14T08:09:39;45.80;;;21.82;;
34657;SDS011;20865;43.312;27.152;2023-12-14T08:12:07;32.45;;;17.00;;
34657;SDS011;20865;43.312;27.152;2023-12-14T08:14:35;48.52;;;24.82;;
34657;SDS011;20865;43.312;27.152;2023-12-14T08:17:07;95.12;;;46.60;;
34657;SDS011;20865;43.312;27.152;2023-12-14T08:19:35;86.25;;;41.88;;
34657;SDS011;20865;43.312;27.152;2023-12-14T08:22:03;94.65;;;46.58;;
34657;SDS011;20865;43.312;27.152;2023-12-14T08:24:32;100.10;;;52.10;;
34657;SDS011;20865;43.312;27.152;2023-12-14T08:26:59;167.70;;;83.30;;
34657;SDS011;20865;43.312;27.152;2023-12-14T08:29:27;104.55;;;47.03;;
34657;SDS011;20865;43.312;27.152;2023-12-14T08:31:54;113.57;;;53.52;;
34657;SDS011;20865;43.312;27.152;2023-12-14T08:34:24;311.02;;;124.10;;
34657;SDS011;20865;43.312;27.152;2023-12-14T08:36:52;194.55;;;72.27;;
34657;SDS011;20865;43.312;27.152;2023-12-14T08:39:20;80.42;;;38.25;;
34657;SDS011;20865;43.312;27.152;2023-12-14T08:41:48;58.35;;;29.12;;
34657;SDS011;20865;43.312;27.152;2023-12-14T08:44:16;59.63;;;28.95;;
34657;SDS011;20865;43.312;27.152;2023-12-14T08:46:45;58.10;;;27.98;;
34657;SDS011;20865;43.312;27.152;2023-12-14T08:49:13;68.67;;;26.90;;
34657;SDS011;20865;43.312;27.152;2023-12-14T08:51:41;40.85;;;20.75;;
34657;SDS011;20865;43.312;27.152;2023-12-14T08:54:09;50.10;;;20.08;;
34657;SDS011;20865;43.312;27.152;2023-12-14T08:56:36;32.98;;;17.00;;
34657;SDS011;20865;43.312;27.152;2023-12-14T08:59:05;78.87;;;32.53;;
34657;SDS011;20865;43.312;27.152;2023-12-14T09:01:33;56.50;;;27.22;;
34657;SDS011;20865;43.312;27.152;2023-12-14T09:04:00;73.78;;;34.92;;
34657;SDS011;20865;43.312;27.152;2023-12-14T09:06:28;130.52;;;46.73;;
34657;SDS011;20865;43.312;27.152;2023-12-14T09:08:56;38.88;;;17.52;;
34657;SDS011;20865;43.312;27.152;2023-12-14T09:11:24;55.28;;;23.00;;
34657;SDS011;20865;43.312;27.152;2023-12-14T09:13:51;32.20;;;16.77;;
34657;SDS011;20865;43.312;27.152;2023-12-14T09:16:19;30.08;;;14.95;;
34657;SDS011;20865;43.312;27.152;2023-12-14T09:18:46;37.83;;;16.40;;
34657;SDS011;20865;43.312;27.152;2023-12-14T09:21:14;24.75;;;14.15;;
34657;SDS011;20865;43.312;27.152;2023-12-14T09:23:41;26.07;;;13.98;;
34657;SDS011;20865;43.312;27.152;2023-12-14T09:26:10;29.65;;;14.80;;
34657;SDS011;20865;43.312;27.152;2023-12-14T09:28:37;28.05;;;15.20;;
34657;SDS011;20865;43.312;27.152;2023-12-14T09:31:06;195.20;;;62.73;;
34657;SDS011;20865;43.312;27.152;2023-12-14T09:33:33;58.70;;;23.87;;
34657;SDS011;20865;43.312;27.152;2023-12-14T09:36:01;59.23;;;24.92;;
34657;SDS011;20865;43.312;27.152;2023-12-14T09:38:29;39.23;;;17.65;;
34657;SDS011;20865;43.312;27.152;2023-12-14T09:40:56;32.17;;;14.70;;
34657;SDS011;20865;43.312;27.152;2023-12-14T09:43:24;73.97;;;34.67;;
34657;SDS011;20865;43.312;27.152;2023-12-14T09:45:52;24.72;;;14.45;;
34657;SDS011;20865;43.312;27.152;2023-12-14T09:48:22;26.65;;;13.68;;
34657;SDS011;20865;43.312;27.152;2023-12-14T09:50:50;23.20;;;13.03;;
34657;SDS011;20865;43.312;27.152;2023-12-14T09:53:18;26.95;;;12.23;;
34657;SDS011;20865;43.312;27.152;2023-12-14T09:55:45;25.23;;;12.43;;
34657;SDS011;20865;43.312;27.152;2023-12-14T09:58:13;78.12;;;38.25;;
34657;SDS011;20865;43.312;27.152;2023-12-14T10:00:41;39.45;;;19.67;;
34657;SDS011;20865;43.312;27.152;2023-12-14T10:03:18;37.30;;;17.02;;
34657;SDS011;20865;43.312;27.152;2023-12-14T10:05:54;99.60;;;36.28;;
34657;SDS011;20865;43.312;27.152;2023-12-14T10:08:22;69.37;;;34.10;;
34657;SDS011;20865;43.312;27.152;2023-12-14T10:10:51;32.63;;;17.95;;
34657;SDS011;20865;43.312;27.152;2023-12-14T10:13:21;24.27;;;13.60;;
34657;SDS011;20865;43.312;27.152;2023-12-14T10:15:50;26.35;;;13.20;;
34657;SDS011;20865;43.312;27.152;2023-12-14T10:18:22;23.60;;;13.10;;
34657;SDS011;20865;43.312;27.152;2023-12-14T10:20:51;36.17;;;16.02;;
34657;SDS011;20865;43.312;27.152;2023-12-14T10:23:18;35.80;;;16.93;;
34657;SDS011;20865;43.312;27.152;2023-12-14T10:25:46;23.92;;;14.10;;
34657;SDS011;20865;43.312;27.152;2023-12-14T10:28:14;24.27;;;10.88;;
34657;SDS011;20865;43.312;27.152;2023-12-14T10:30:42;30.55;;;14.00;;
34657;SDS011;20865;43.312;27.152;2023-12-14T10:33:09;23.02;;;11.20;;
34657;SDS011;20865;43.312;27.152;2023-12-14T10:35:37;22.52;;;12.03;;
34657;SDS011;20865;43.312;27.152;2023-12-14T10:38:06;33.15;;;11.78;;
34657;SDS011;20865;43.312;27.152;2023-12-14T10:40:35;25.68;;;11.12;;
34657;SDS011;20865;43.312;27.152;2023-12-14T10:43:04;22.02;;;11.90;;
34657;SDS011;20865;43.312;27.152;2023-12-14T10:45:33;29.27;;;12.23;;
34657;SDS011;20865;43.312;27.152;2023-12-14T10:48:01;26.12;;;11.40;;
34657;SDS011;20865;43.312;27.152;2023-12-14T10:50:30;32.45;;;10.95;;
34657;SDS011;20865;43.312;27.152;2023-12-14T10:52:58;17.55;;;9.40;;
34657;SDS011;20865;43.312;27.152;2023-12-14T10:55:37;21.40;;;10.88;;
34657;SDS011;20865;43.312;27.152;2023-12-14T10:58:08;21.45;;;12.80;;
34657;SDS011;20865;43.312;27.152;2023-12-14T11:00:36;21.05;;;12.33;;
34657;SDS011;20865;43.312;27.152;2023-12-14T11:03:05;19.20;;;11.05;;
34657;SDS011;20865;43.312;27.152;2023-12-14T11:05:33;18.75;;;8.53;;
34657;SDS011;20865;43.312;27.152;2023-12-14T11:13:10;17.02;;;8.93;;
34657;SDS011;20865;43.312;27.152;2023-12-14T11:15:40;26.95;;;12.13;;
34657;SDS011;20865;43.312;27.152;2023-12-14T11:20:51;19.67;;;7.78;;
34657;SDS011;20865;43.312;27.152;2023-12-14T11:26:03;11.60;;;6.35;;
34657;SDS011;20865;43.312;27.152;2023-12-14T11:28:38;18.77;;;9.08;;
34657;SDS011;20865;43.312;27.152;2023-12-14T11:31:10;14.35;;;7.28;;
34657;SDS011;20865;43.312;27.152;2023-12-14T11:33:38;15.88;;;8.10;;
34657;SDS011;20865;43.312;27.152;2023-12-14T11:36:06;17.40;;;8.10;;
34657;SDS011;20865;43.312;27.152;2023-12-14T11:38:34;14.10;;;8.08;;
34657;SDS011;20865;43.312;27.152;2023-12-14T11:41:02;15.08;;;7.95;;
34657;SDS011;20865;43.312;27.152;2023-12-14T11:43:34;14.28;;;7.05;;
34657;SDS011;20865;43.312;27.152;2023-12-14T11:46:06;11.80;;;6.65;;
34657;SDS011;20865;43.312;27.152;2023-12-14T11:48:33;9.35;;;5.50;;
34657;SDS011;20865;43.312;27.152;2023-12-14T11:51:03;9.48;;;5.67;;
34657;SDS011;20865;43.312;27.152;2023-12-14T11:53:30;11.75;;;5.75;;
34657;SDS011;20865;43.312;27.152;2023-12-14T11:55:59;10.55;;;5.12;;
34657;SDS011;20865;43.312;27.152;2023-12-14T11:58:28;14.70;;;6.75;;
34657;SDS011;20865;43.312;27.152;2023-12-14T12:01:09;12.93;;;6.97;;
34657;SDS011;20865;43.312;27.152;2023-12-14T12:03:31;24.05;;;9.23;;
34657;SDS011;20865;43.312;27.152;2023-12-14T12:05:59;14.40;;;6.65;;
34657;SDS011;20865;43.312;27.152;2023-12-14T12:08:26;10.35;;;5.85;;
34657;SDS011;20865;43.312;27.152;2023-12-14T12:10:55;14.33;;;7.35;;
34657;SDS011;20865;43.312;27.152;2023-12-14T12:13:23;12.95;;;7.28;;
34657;SDS011;20865;43.312;27.152;2023-12-14T12:15:51;17.57;;;6.30;;
34657;SDS011;20865;43.312;27.152;2023-12-14T12:18:18;11.68;;;6.37;;
34657;SDS011;20865;43.312;27.152;2023-12-14T12:20:46;11.45;;;5.40;;
34657;SDS011;20865;43.312;27.152;2023-12-14T12:23:13;13.00;;;6.35;;
34657;SDS011;20865;43.312;27.152;2023-12-14T12:25:42;14.43;;;7.97;;
34657;SDS011;20865;43.312;27.152;2023-12-14T12:28:09;19.07;;;8.43;;
34657;SDS011;20865;43.312;27.152;2023-12-14T12:30:37;23.60;;;11.03;;
34657;SDS011;20865;43.312;27.152;2023-12-14T12:33:04;13.75;;;7.25;;
34657;SDS011;20865;43.312;27.152;2023-12-14T12:35:32;14.98;;;7.10;;
34657;SDS011;20865;43.312;27.152;2023-12-14T12:38:00;16.20;;;7.72;;
34657;SDS011;20865;43.312;27.152;2023-12-14T12:40:28;13.98;;;7.22;;
34657;SDS011;20865;43.312;27.152;2023-12-14T12:42:57;14.80;;;7.40;;
34657;SDS011;20865;43.312;27.152;2023-12-14T12:45:24;16.73;;;7.70;;
34657;SDS011;20865;43.312;27.152;2023-12-14T12:47:53;16.82;;;8.05;;
34657;SDS011;20865;43.312;27.152;2023-12-14T12:50:21;23.83;;;9.28;;
34657;SDS011;20865;43.312;27.152;2023-12-14T12:52:48;17.35;;;9.13;;
34657;SDS011;20865;43.312;27.152;2023-12-14T12:55:16;19.75;;;11.88;;
34657;SDS011;20865;43.312;27.152;2023-12-14T12:57:44;20.82;;;9.35;;
34657;SDS011;20865;43.312;27.152;2023-12-14T13:00:13;18.20;;;9.55;;
34657;SDS011;20865;43.312;27.152;2023-12-14T13:02:41;17.20;;;9.75;;
34657;SDS011;20865;43.312;27.152;2023-12-14T13:05:10;19.12;;;10.23;;
34657;SDS011;20865;43.312;27.152;2023-12-14T13:07:38;19.82;;;10.32;;
34657;SDS011;20865;43.312;27.152;2023-12-14T13:10:08;17.23;;;8.98;;
34657;SDS011;20865;43.312;27.152;2023-12-14T13:12:35;18.07;;;9.55;;
34657;SDS011;20865;43.312;27.152;2023-12-14T13:15:03;22.20;;;10.60;;
34657;SDS011;20865;43.312;27.152;2023-12-14T13:17:31;19.42;;;10.00;;
34657;SDS011;20865;43.312;27.152;2023-12-14T13:19:59;22.58;;;11.60;;
34657;SDS011;20865;43.312;27.152;2023-12-14T13:22:28;15.45;;;8.98;;
34657;SDS011;20865;43.312;27.152;2023-12-14T13:24:56;18.73;;;9.88;;
34657;SDS011;20865;43.312;27.152;2023-12-14T13:27:24;23.40;;;12.00;;
34657;SDS011;20865;43.312;27.152;2023-12-14T13:29:51;17.92;;;9.80;;
34657;SDS011;20865;43.312;27.152;2023-12-14T13:32:19;19.48;;;10.20;;
34657;SDS011;20865;43.312;27.152;2023-12-14T13:34:47;22.05;;;11.30;;
34657;SDS011;20865;43.312;27.152;2023-12-14T13:37:15;23.52;;;11.68;;
34657;SDS011;20865;43.312;27.152;2023-12-14T13:39:43;23.55;;;11.83;;
34657;SDS011;20865;43.312;27.152;2023-12-14T13:42:10;25.82;;;11.65;;
34657;SDS011;20865;43.312;27.152;2023-12-14T13:44:38;23.62;;;11.60;;
34657;SDS011;20865;43.312;27.152;2023-12-14T13:47:06;23.80;;;12.10;;
34657;SDS011;20865;43.312;27.152;2023-12-14T13:49:34;30.45;;;12.00;;
34657;SDS011;20865;43.312;27.152;2023-12-14T13:52:01;20.25;;;11.00;;
34657;SDS011;20865;43.312;27.152;2023-12-14T13:54:30;26.02;;;13.72;;
34657;SDS011;20865;43.312;27.152;2023-12-14T13:56:57;20.68;;;11.20;;
34657;SDS011;20865;43.312;27.152;2023-12-14T13:59:25;22.52;;;12.00;;
34657;SDS011;20865;43.312;27.152;2023-12-14T14:01:54;22.22;;;11.25;;
34657;SDS011;20865;43.312;27.152;2023-12-14T14:04:22;23.75;;;12.03;;
34657;SDS011;20865;43.312;27.152;2023-12-14T14:06:50;26.85;;;12.03;;
34657;SDS011;20865;43.312;27.152;2023-12-14T14:09:18;28.55;;;13.62;;
34657;SDS011;20865;43.312;27.152;2023-12-14T14:11:45;59.35;;;25.52;;
34657;SDS011;20865;43.312;27.152;2023-12-14T14:14:14;33.92;;;15.58;;
34657;SDS011;20865;43.312;27.152;2023-12-14T14:16:42;26.25;;;13.88;;
34657;SDS011;20865;43.312;27.152;2023-12-14T14:19:10;30.25;;;14.83;;
34657;SDS011;20865;43.312;27.152;2023-12-14T14:21:37;34.85;;;17.12;;
34657;SDS011;20865;43.312;27.152;2023-12-14T14:24:05;27.80;;;13.83;;
34657;SDS011;20865;43.312;27.152;2023-12-14T14:26:33;28.07;;;13.78;;
34657;SDS011;20865;43.312;27.152;2023-12-14T14:29:00;26.23;;;13.40;;